createdAt,value
2017-12-11T00:00:07.305Z,5.00
2017-12-11T00:00:41.194Z,5.55
2017-12-11T00:01:15.080Z,5.05
2017-12-11T00:01:48.925Z,4.47
2017-12-11T00:02:22.899Z,5.05
2017-12-11T00:02:56.918Z,5.62
2017-12-11T00:03:30.970Z,4.97
2017-12-11T00:04:05.112Z,4.70
2017-12-11T00:04:39.057Z,4.55
2017-12-11T00:05:13.310Z,5.25
2017-12-11T00:05:47.312Z,4.70
2017-12-11T00:06:22.080Z,5.15
2017-12-11T00:06:56.012Z,5.40
2017-12-11T00:07:30.166Z,4.82
2017-12-11T00:08:04.229Z,4.80
2017-12-11T00:08:38.244Z,5.65
2017-12-11T00:09:12.283Z,5.20
2017-12-11T00:09:46.370Z,4.53
2017-12-11T00:10:20.417Z,4.60
2017-12-11T00:10:54.477Z,4.85
2017-12-11T00:11:28.447Z,4.85
2017-12-11T00:12:02.373Z,4.50
2017-12-11T00:12:36.307Z,4.12
2017-12-11T00:13:10.247Z,5.45
2017-12-11T00:13:44.132Z,4.55
2017-12-11T00:14:18.053Z,4.40
2017-12-11T00:14:52.031Z,4.80
2017-12-11T00:15:25.920Z,4.85
2017-12-11T00:16:05.642Z,5.00
2017-12-11T00:16:39.500Z,4.00
2017-12-11T00:17:13.391Z,4.50
2017-12-11T00:17:47.319Z,4.37
2017-12-11T00:18:21.193Z,4.30
2017-12-11T00:18:55.065Z,4.53
2017-12-11T00:19:28.978Z,4.57
2017-12-11T00:20:02.865Z,4.07
2017-12-11T00:20:36.717Z,4.50
2017-12-11T00:21:10.602Z,4.30
2017-12-11T00:21:44.453Z,4.10
2017-12-11T00:22:24.183Z,4.28
2017-12-11T00:22:58.064Z,3.85
2017-12-11T00:23:31.947Z,4.40
2017-12-11T00:24:06.531Z,4.70
2017-12-11T00:24:40.428Z,4.28
2017-12-11T00:25:14.340Z,5.12
2017-12-11T00:25:48.287Z,4.00
2017-12-11T00:26:22.158Z,4.50
2017-12-11T00:26:56.073Z,4.10
2017-12-11T00:27:30.269Z,5.10
2017-12-11T00:28:04.149Z,4.28
2017-12-11T00:28:38.055Z,4.70
2017-12-11T00:29:11.942Z,4.80
2017-12-11T00:29:45.798Z,4.47
2017-12-11T00:30:19.677Z,4.25
2017-12-11T00:30:53.890Z,3.70
2017-12-11T00:31:27.765Z,4.00
2017-12-11T00:32:01.618Z,3.70
2017-12-11T00:32:35.497Z,4.00
2017-12-11T00:33:09.394Z,3.80
2017-12-11T00:33:43.295Z,4.00
2017-12-11T00:34:17.262Z,4.50
2017-12-11T00:34:51.141Z,4.10
2017-12-11T00:35:25.008Z,4.07
2017-12-11T00:35:58.862Z,4.43
2017-12-11T00:36:32.733Z,4.57
2017-12-11T00:37:06.677Z,3.70
2017-12-11T00:37:40.570Z,4.10
2017-12-11T00:38:14.480Z,5.07
2017-12-11T00:38:48.465Z,3.90
2017-12-11T00:39:22.380Z,4.32
2017-12-11T00:39:56.253Z,3.50
2017-12-11T00:40:30.128Z,4.53
2017-12-11T00:41:04.032Z,4.10
2017-12-11T00:41:37.888Z,4.47
2017-12-11T00:42:11.782Z,4.32
2017-12-11T00:42:45.652Z,4.25
2017-12-11T00:43:19.557Z,4.40
2017-12-11T00:43:53.430Z,4.80
2017-12-11T00:44:27.389Z,3.97
2017-12-11T00:45:01.296Z,3.95
2017-12-11T00:45:35.271Z,3.75
2017-12-11T00:46:09.188Z,3.83
2017-12-11T00:46:43.096Z,4.55
2017-12-11T00:47:17.284Z,3.67
2017-12-11T00:47:51.158Z,3.80
2017-12-11T00:48:25.006Z,3.58
2017-12-11T00:48:58.928Z,4.60
2017-12-11T00:49:32.798Z,3.78
2017-12-11T00:50:06.649Z,3.92
2017-12-11T00:50:40.597Z,4.30
2017-12-11T00:51:14.468Z,3.83
2017-12-11T00:51:48.393Z,3.67
2017-12-11T00:52:22.327Z,3.20
2017-12-11T00:52:56.171Z,3.90
2017-12-11T00:53:30.207Z,3.78
2017-12-11T00:54:04.082Z,3.55
2017-12-11T00:54:38.023Z,3.87
2017-12-11T00:55:11.909Z,3.70
2017-12-11T00:55:45.784Z,3.67
2017-12-11T00:56:19.646Z,3.50
2017-12-11T00:56:53.514Z,3.50
2017-12-11T00:57:27.695Z,3.92
2017-12-11T00:58:01.607Z,3.72
2017-12-11T00:58:35.574Z,3.15
2017-12-11T00:59:09.588Z,3.72
2017-12-11T00:59:43.483Z,3.25
2017-12-11T01:00:17.360Z,4.00
2017-12-11T01:00:51.227Z,3.83
2017-12-11T01:01:25.147Z,3.53
2017-12-11T01:01:59.009Z,3.28
2017-12-11T01:02:32.911Z,4.20
2017-12-11T01:03:06.841Z,3.15
2017-12-11T01:03:40.799Z,3.85
2017-12-11T01:04:14.831Z,3.53
2017-12-11T01:04:49.654Z,3.62
2017-12-11T01:05:23.855Z,3.30
2017-12-11T01:05:57.748Z,3.85
2017-12-11T01:06:31.631Z,4.07
2017-12-11T01:07:05.852Z,3.28
2017-12-11T01:07:39.734Z,3.47
2017-12-11T01:08:13.677Z,3.00
2017-12-11T01:08:47.633Z,3.17
2017-12-11T01:09:21.524Z,3.17
2017-12-11T01:09:55.405Z,3.35
2017-12-11T01:10:29.301Z,3.33
2017-12-11T01:11:03.217Z,3.12
2017-12-11T01:11:37.072Z,3.20
2017-12-11T01:12:11.033Z,3.78
2017-12-11T01:12:44.938Z,2.65
2017-12-11T01:13:18.793Z,3.00
2017-12-11T01:13:52.671Z,2.80
2017-12-11T01:14:26.591Z,3.08
2017-12-11T01:15:00.483Z,3.42
2017-12-11T01:15:34.369Z,3.62
2017-12-11T01:16:08.304Z,3.72
2017-12-11T01:16:42.166Z,3.92
2017-12-11T01:17:16.075Z,3.85
2017-12-11T01:17:49.944Z,3.45
2017-12-11T01:18:23.854Z,3.25
2017-12-11T01:18:57.778Z,3.75
2017-12-11T01:19:31.677Z,3.22
2017-12-11T01:20:05.551Z,2.62
2017-12-11T01:20:39.414Z,3.00
2017-12-11T01:21:13.446Z,3.25
2017-12-11T01:21:47.317Z,4.22
2017-12-11T01:22:21.196Z,3.22
2017-12-11T01:22:55.065Z,3.10
2017-12-11T01:23:29.042Z,3.55
2017-12-11T01:24:03.037Z,2.85
2017-12-11T01:24:36.980Z,3.35
2017-12-11T01:25:10.848Z,3.25
2017-12-11T01:25:44.708Z,3.20
2017-12-11T01:26:18.653Z,2.90
2017-12-11T01:26:52.603Z,2.90
2017-12-11T01:27:26.485Z,3.40
2017-12-11T01:28:00.459Z,3.12
2017-12-11T01:28:34.365Z,3.58
2017-12-11T01:29:08.383Z,3.22
2017-12-11T01:29:42.277Z,3.00
2017-12-11T01:30:16.175Z,3.20
2017-12-11T01:30:50.068Z,3.00
2017-12-11T01:31:23.927Z,3.35
2017-12-11T01:31:57.918Z,3.70
2017-12-11T01:32:31.830Z,3.17
2017-12-11T01:33:05.707Z,3.30
2017-12-11T01:33:39.565Z,3.33
2017-12-11T01:34:13.439Z,3.12
2017-12-11T01:34:47.385Z,3.45
2017-12-11T01:35:21.256Z,3.87
2017-12-11T01:35:55.113Z,3.08
2017-12-11T01:36:29.040Z,3.05
2017-12-11T01:37:02.909Z,3.22
2017-12-11T01:37:36.775Z,3.10
2017-12-11T01:38:10.661Z,3.35
2017-12-11T01:38:44.552Z,2.83
2017-12-11T01:39:18.443Z,3.35
2017-12-11T01:39:52.351Z,2.95
2017-12-11T01:40:26.222Z,3.20
2017-12-11T01:41:00.068Z,4.37
2017-12-11T01:41:33.925Z,3.35
2017-12-11T01:42:07.857Z,2.80
2017-12-11T01:42:41.745Z,3.58
2017-12-11T01:43:15.614Z,3.60
2017-12-11T01:43:49.585Z,3.05
2017-12-11T01:44:23.432Z,2.92
2017-12-11T01:44:57.353Z,3.35
2017-12-11T01:45:31.437Z,4.53
2017-12-11T01:46:06.061Z,3.80
2017-12-11T01:46:39.981Z,4.00
2017-12-11T01:47:13.880Z,3.75
2017-12-11T01:47:47.804Z,3.20
2017-12-11T01:48:21.738Z,3.22
2017-12-11T01:48:55.641Z,3.40
2017-12-11T01:49:29.843Z,3.20
2017-12-11T01:50:03.736Z,3.30
2017-12-11T01:50:37.735Z,3.37
2017-12-11T01:51:11.625Z,3.37
2017-12-11T01:51:45.491Z,3.45
2017-12-11T01:52:19.446Z,3.75
2017-12-11T01:52:53.308Z,3.65
2017-12-11T01:53:27.294Z,2.90
2017-12-11T01:54:01.405Z,3.55
2017-12-11T01:54:35.357Z,3.00
2017-12-11T01:55:09.276Z,2.95
2017-12-11T01:55:43.225Z,3.30
2017-12-11T01:56:17.264Z,3.28
2017-12-11T01:56:51.240Z,3.15
2017-12-11T01:57:25.151Z,2.97
2017-12-11T01:57:59.125Z,3.55
2017-12-11T01:58:33.232Z,3.28
2017-12-11T01:59:07.326Z,2.90
2017-12-11T01:59:41.266Z,3.15
2017-12-11T02:00:15.591Z,3.30
2017-12-11T02:00:49.530Z,2.62
2017-12-11T02:01:23.669Z,3.08
2017-12-11T02:01:57.516Z,2.95
2017-12-11T02:02:31.377Z,3.17
2017-12-11T02:03:05.498Z,3.60
2017-12-11T02:03:40.146Z,3.40
2017-12-11T02:04:15.531Z,4.70
2017-12-11T02:04:50.328Z,3.15
2017-12-11T02:05:24.262Z,3.00
2017-12-11T02:05:58.155Z,2.90
2017-12-11T02:06:32.088Z,4.47
2017-12-11T02:07:05.991Z,3.20
2017-12-11T02:07:40.000Z,3.12
2017-12-11T02:08:14.041Z,3.35
2017-12-11T02:08:48.246Z,3.30
2017-12-11T02:09:22.201Z,3.40
2017-12-11T02:09:56.142Z,3.40
2017-12-11T02:10:30.626Z,3.37
2017-12-11T02:11:04.563Z,3.40
2017-12-11T02:11:38.497Z,2.97
2017-12-11T02:12:12.441Z,3.30
2017-12-11T02:12:46.376Z,3.22
2017-12-11T02:13:20.328Z,3.50
2017-12-11T02:13:55.241Z,3.30
2017-12-11T02:14:29.274Z,2.67
2017-12-11T02:15:03.282Z,2.90
2017-12-11T02:15:37.241Z,3.58
2017-12-11T02:16:11.189Z,3.25
2017-12-11T02:16:45.225Z,3.28
2017-12-11T02:17:19.077Z,3.15
2017-12-11T02:17:52.956Z,4.93
2017-12-11T02:18:26.813Z,2.92
2017-12-11T02:19:01.216Z,3.90
2017-12-11T02:19:35.232Z,2.72
2017-12-11T02:20:09.274Z,4.45
2017-12-11T02:20:43.207Z,3.35
2017-12-11T02:21:17.040Z,3.53
2017-12-11T02:21:51.016Z,4.00
2017-12-11T02:22:24.900Z,3.87
2017-12-11T02:22:58.795Z,3.65
2017-12-11T02:23:32.706Z,2.85
2017-12-11T02:24:06.556Z,3.08
2017-12-11T02:24:40.475Z,3.30
2017-12-11T02:25:14.356Z,3.20
2017-12-11T02:25:48.255Z,3.42
2017-12-11T02:26:22.156Z,3.35
2017-12-11T02:26:55.992Z,3.22
2017-12-11T02:27:29.877Z,3.45
2017-12-11T02:28:03.803Z,2.42
2017-12-11T02:28:37.651Z,3.40
2017-12-11T02:29:11.578Z,3.33
2017-12-11T02:29:45.440Z,3.72
2017-12-11T02:30:19.521Z,3.00
2017-12-11T02:30:53.440Z,2.62
2017-12-11T02:31:27.316Z,3.25
2017-12-11T02:32:01.341Z,3.28
2017-12-11T02:32:35.227Z,3.78
2017-12-11T02:33:09.140Z,4.00
2017-12-11T02:33:43.111Z,3.45
2017-12-11T02:34:16.982Z,3.00
2017-12-11T02:34:50.861Z,4.05
2017-12-11T02:35:24.767Z,4.22
2017-12-11T02:35:58.714Z,3.35
2017-12-11T02:36:32.771Z,3.28
2017-12-11T02:37:06.636Z,3.60
2017-12-11T02:37:40.602Z,3.12
2017-12-11T02:38:14.496Z,3.65
2017-12-11T02:38:48.440Z,3.00
2017-12-11T02:39:22.397Z,3.45
2017-12-11T02:39:56.260Z,3.40
2017-12-11T02:40:30.211Z,3.50
2017-12-11T02:41:04.196Z,3.20
2017-12-11T02:41:38.309Z,3.40
2017-12-11T02:42:12.172Z,3.50
2017-12-11T02:42:46.061Z,3.72
2017-12-11T02:43:19.936Z,3.78
2017-12-11T02:43:53.831Z,3.30
2017-12-11T02:44:27.790Z,3.50
2017-12-11T02:45:01.755Z,3.15
2017-12-11T02:45:35.680Z,3.50
2017-12-11T02:46:09.583Z,3.25
2017-12-11T02:46:43.474Z,3.72
2017-12-11T02:47:17.457Z,3.30
2017-12-11T02:47:51.424Z,3.70
2017-12-11T02:48:25.365Z,3.47
2017-12-11T02:48:59.249Z,3.47
2017-12-11T02:49:33.391Z,3.10
2017-12-11T02:50:07.280Z,4.75
2017-12-11T02:50:41.184Z,3.33
2017-12-11T02:51:15.237Z,3.58
2017-12-11T02:51:49.172Z,3.35
2017-12-11T02:52:23.073Z,2.95
2017-12-11T02:52:57.071Z,3.37
2017-12-11T02:53:30.965Z,3.28
2017-12-11T02:54:04.861Z,3.47
2017-12-11T02:54:38.748Z,3.15
2017-12-11T02:55:12.620Z,3.75
2017-12-11T02:55:46.487Z,3.30
2017-12-11T02:56:20.398Z,3.90
2017-12-11T02:56:54.257Z,3.92
2017-12-11T02:57:28.183Z,3.22
2017-12-11T02:58:02.088Z,4.15
2017-12-11T02:58:35.936Z,3.25
2017-12-11T02:59:09.841Z,3.65
2017-12-11T02:59:43.716Z,3.20
2017-12-11T03:00:17.565Z,3.60
2017-12-11T03:00:51.461Z,3.15
2017-12-11T03:01:25.345Z,3.37
2017-12-11T03:01:59.276Z,4.00
2017-12-11T03:02:33.301Z,3.97
2017-12-11T03:03:07.198Z,3.10
2017-12-11T03:03:41.093Z,4.12
2017-12-11T03:04:15.062Z,4.10
2017-12-11T03:04:48.941Z,3.67
2017-12-11T03:05:22.786Z,4.18
2017-12-11T03:05:56.852Z,4.00
2017-12-11T03:06:30.748Z,3.40
2017-12-11T03:07:04.668Z,3.50
2017-12-11T03:07:38.561Z,3.40
2017-12-11T03:08:12.451Z,4.25
2017-12-11T03:08:46.433Z,4.90
2017-12-11T03:09:20.402Z,4.28
2017-12-11T03:09:54.307Z,3.15
2017-12-11T03:10:28.189Z,3.67
2017-12-11T03:11:02.129Z,4.37
2017-12-11T03:11:36.019Z,3.97
2017-12-11T03:12:10.686Z,4.10
2017-12-11T03:12:44.602Z,3.60
2017-12-11T03:13:18.473Z,3.90
2017-12-11T03:13:52.324Z,3.92
2017-12-11T03:14:26.214Z,3.87
2017-12-11T03:15:00.104Z,3.85
2017-12-11T03:15:34.003Z,4.07
2017-12-11T03:16:08.080Z,3.67
2017-12-11T03:16:41.945Z,4.07
2017-12-11T03:17:15.821Z,3.80
2017-12-11T03:17:49.715Z,3.87
2017-12-11T03:18:23.630Z,4.22
2017-12-11T03:18:57.521Z,4.22
2017-12-11T03:19:31.440Z,3.95
2017-12-11T03:20:05.371Z,3.62
2017-12-11T03:20:39.238Z,4.00
2017-12-11T03:21:13.137Z,3.83
2017-12-11T03:21:47.086Z,4.37
2017-12-11T03:22:20.958Z,4.20
2017-12-11T03:22:54.886Z,4.55
2017-12-11T03:23:28.847Z,4.12
2017-12-11T03:24:02.725Z,3.90
2017-12-11T03:24:36.573Z,4.30
2017-12-11T03:25:10.508Z,3.60
2017-12-11T03:25:44.397Z,4.03
2017-12-11T03:26:18.299Z,3.87
2017-12-11T03:26:52.200Z,4.62
2017-12-11T03:27:26.131Z,4.22
2017-12-11T03:28:00.040Z,4.72
2017-12-11T03:28:33.939Z,4.00
2017-12-11T03:29:07.806Z,4.40
2017-12-11T03:29:41.690Z,4.30
2017-12-11T03:30:15.689Z,4.15
2017-12-11T03:30:49.562Z,3.90
2017-12-11T03:31:23.514Z,4.12
2017-12-11T03:31:57.403Z,4.70
2017-12-11T03:32:31.278Z,4.35
2017-12-11T03:33:05.217Z,3.87
2017-12-11T03:33:39.161Z,4.45
2017-12-11T03:34:13.272Z,4.18
2017-12-11T03:34:47.228Z,4.15
2017-12-11T03:35:21.225Z,3.42
2017-12-11T03:35:55.166Z,4.37
2017-12-11T03:36:29.086Z,3.85
2017-12-11T03:37:02.998Z,3.87
2017-12-11T03:37:36.864Z,4.15
2017-12-11T03:38:10.739Z,4.20
2017-12-11T03:38:44.639Z,3.97
2017-12-11T03:39:18.532Z,3.95
2017-12-11T03:39:52.465Z,3.58
2017-12-11T03:40:26.324Z,3.37
2017-12-11T03:41:00.213Z,3.80
2017-12-11T03:41:34.169Z,3.40
2017-12-11T03:42:08.103Z,3.62
2017-12-11T03:42:42.076Z,4.20
2017-12-11T03:43:15.980Z,3.85
2017-12-11T03:43:49.853Z,3.87
2017-12-11T03:44:23.754Z,3.80
2017-12-11T03:44:57.650Z,3.70
2017-12-11T03:45:31.526Z,3.65
2017-12-11T03:46:05.484Z,3.67
2017-12-11T03:46:39.539Z,3.28
2017-12-11T03:47:13.467Z,3.33
2017-12-11T03:47:47.616Z,3.40
2017-12-11T03:48:21.567Z,4.10
2017-12-11T03:48:55.504Z,2.95
2017-12-11T03:49:29.406Z,2.95
2017-12-11T03:50:03.297Z,2.80
2017-12-11T03:50:37.201Z,2.80
2017-12-11T03:51:11.121Z,2.83
2017-12-11T03:51:45.065Z,4.07
2017-12-11T03:52:19.748Z,3.30
2017-12-11T03:52:53.645Z,2.67
2017-12-11T03:53:27.528Z,2.60
2017-12-11T03:54:01.443Z,3.05
2017-12-11T03:54:35.328Z,2.97
2017-12-11T03:55:09.297Z,2.55
2017-12-11T03:55:43.170Z,2.35
2017-12-11T03:56:17.076Z,3.10
2017-12-11T03:56:51.024Z,2.60
2017-12-11T03:57:24.981Z,2.35
2017-12-11T03:57:59.014Z,2.90
2017-12-11T03:58:33.007Z,2.55
2017-12-11T03:59:06.894Z,2.50
2017-12-11T03:59:40.845Z,2.10
2017-12-11T04:00:14.837Z,2.10
2017-12-11T04:00:48.789Z,2.12
2017-12-11T04:01:22.681Z,2.10
2017-12-11T04:01:56.585Z,2.22
2017-12-11T04:02:30.486Z,2.58
2017-12-11T04:03:04.381Z,3.08
2017-12-11T04:03:38.255Z,2.60
2017-12-11T04:04:12.309Z,2.50
2017-12-11T04:04:46.185Z,2.47
2017-12-11T04:05:20.223Z,2.58
2017-12-11T04:05:54.137Z,2.12
2017-12-11T04:06:28.145Z,2.20
2017-12-11T04:07:02.087Z,2.03
2017-12-11T04:07:36.060Z,1.75
2017-12-11T04:08:09.965Z,1.90
2017-12-11T04:08:43.831Z,2.30
2017-12-11T04:09:17.747Z,2.10
2017-12-11T04:09:51.640Z,2.35
2017-12-11T04:10:25.506Z,2.50
2017-12-11T04:10:59.402Z,2.00
2017-12-11T04:11:33.338Z,2.30
2017-12-11T04:12:07.268Z,2.10
2017-12-11T04:12:41.221Z,2.58
2017-12-11T04:13:15.158Z,2.20
2017-12-11T04:13:49.119Z,2.60
2017-12-11T04:14:23.240Z,2.70
2017-12-11T04:14:57.251Z,2.83
2017-12-11T04:15:31.216Z,2.80
2017-12-11T04:16:05.167Z,2.37
2017-12-11T04:16:39.078Z,2.12
2017-12-11T04:17:13.091Z,1.95
2017-12-11T04:17:47.030Z,3.20
2017-12-11T04:18:20.987Z,2.75
2017-12-11T04:18:55.044Z,2.47
2017-12-11T04:19:28.896Z,2.20
2017-12-11T04:20:02.758Z,2.30
2017-12-11T04:20:36.667Z,2.85
2017-12-11T04:21:10.635Z,3.22
2017-12-11T04:21:44.630Z,2.90
2017-12-11T04:22:18.551Z,2.55
2017-12-11T04:22:52.525Z,2.47
2017-12-11T04:23:26.518Z,3.03
2017-12-11T04:24:01.514Z,2.50
2017-12-11T04:24:35.402Z,2.87
2017-12-11T04:25:09.277Z,2.08
2017-12-11T04:25:43.162Z,2.58
2017-12-11T04:26:17.055Z,2.47
2017-12-11T04:26:50.940Z,3.05
2017-12-11T04:27:24.908Z,2.20
2017-12-11T04:27:58.839Z,2.40
2017-12-11T04:28:32.765Z,2.10
2017-12-11T04:29:06.629Z,2.67
2017-12-11T04:29:40.556Z,2.25
2017-12-11T04:30:14.530Z,2.30
2017-12-11T04:30:48.442Z,2.45
2017-12-11T04:31:22.411Z,2.83
2017-12-11T04:31:56.310Z,2.22
2017-12-11T04:32:31.127Z,2.87
2017-12-11T04:33:05.018Z,2.67
2017-12-11T04:33:38.890Z,2.17
2017-12-11T04:34:12.810Z,2.55
2017-12-11T04:34:46.653Z,2.90
2017-12-11T04:35:20.565Z,3.62
2017-12-11T04:35:55.412Z,2.80
2017-12-11T04:36:29.259Z,2.70
2017-12-11T04:37:03.224Z,2.67
2017-12-11T04:37:37.122Z,2.37
2017-12-11T04:38:10.993Z,3.30
2017-12-11T04:38:44.856Z,3.37
2017-12-11T04:39:18.757Z,3.10
2017-12-11T04:39:52.655Z,3.12
2017-12-11T04:40:26.563Z,2.87
2017-12-11T04:41:00.460Z,2.90
2017-12-11T04:41:34.324Z,2.97
2017-12-11T04:42:08.258Z,3.25
2017-12-11T04:42:42.177Z,2.90
2017-12-11T04:43:16.056Z,2.75
2017-12-11T04:43:49.990Z,3.28
2017-12-11T04:44:23.892Z,2.75
2017-12-11T04:44:57.885Z,3.20
2017-12-11T04:45:31.800Z,3.90
2017-12-11T04:46:05.999Z,3.80
2017-12-11T04:46:40.078Z,3.85
2017-12-11T04:47:14.027Z,3.22
2017-12-11T04:47:48.155Z,3.12
2017-12-11T04:48:22.088Z,3.30
2017-12-11T04:48:55.978Z,3.20
2017-12-11T04:49:29.843Z,3.30
2017-12-11T04:50:03.771Z,3.22
2017-12-11T04:50:37.785Z,3.70
2017-12-11T04:51:11.708Z,3.70
2017-12-11T04:51:45.568Z,3.30
2017-12-11T04:52:19.560Z,3.17
2017-12-11T04:52:53.519Z,3.65
2017-12-11T04:53:27.480Z,4.37
2017-12-11T04:54:01.330Z,3.80
2017-12-11T04:54:35.197Z,3.80
2017-12-11T04:55:09.150Z,3.67
2017-12-11T04:55:43.036Z,4.22
2017-12-11T04:56:16.906Z,3.50
2017-12-11T04:56:50.921Z,3.55
2017-12-11T04:57:24.775Z,3.92
2017-12-11T04:57:58.791Z,3.53
2017-12-11T04:58:32.676Z,4.05
2017-12-11T04:59:06.741Z,4.32
2017-12-11T04:59:40.616Z,4.75
2017-12-11T05:00:14.472Z,4.30
2017-12-11T05:00:48.425Z,4.30
2017-12-11T05:01:22.427Z,3.80
2017-12-11T05:01:56.352Z,4.30
2017-12-11T05:02:30.291Z,3.95
2017-12-11T05:03:04.351Z,3.75
2017-12-11T05:03:38.250Z,3.75
2017-12-11T05:04:12.144Z,4.37
2017-12-11T05:04:46.123Z,4.32
2017-12-11T05:05:20.028Z,4.45
2017-12-11T05:05:53.889Z,3.90
2017-12-11T05:06:27.769Z,4.22
2017-12-11T05:07:01.661Z,3.50
2017-12-11T05:07:35.577Z,3.80
2017-12-11T05:08:09.622Z,4.50
2017-12-11T05:08:43.529Z,5.07
2017-12-11T05:09:17.446Z,5.12
2017-12-11T05:09:51.608Z,4.75
2017-12-11T05:10:25.711Z,4.57
2017-12-11T05:10:59.874Z,4.95
2017-12-11T05:11:33.903Z,7.32
2017-12-11T05:12:07.862Z,7.25
2017-12-11T05:12:41.816Z,7.75
2017-12-11T05:13:15.709Z,4.25
2017-12-11T05:13:49.630Z,4.85
2017-12-11T05:14:23.517Z,4.03
2017-12-11T05:14:57.394Z,4.25
2017-12-11T05:15:31.593Z,4.18
2017-12-11T05:16:05.612Z,4.47
2017-12-11T05:16:40.179Z,4.60
2017-12-11T05:17:14.756Z,4.82
2017-12-11T05:17:48.947Z,5.20
2017-12-11T05:18:22.819Z,4.25
2017-12-11T05:18:56.785Z,4.55
2017-12-11T05:19:30.696Z,4.18
2017-12-11T05:20:04.571Z,5.15
2017-12-11T05:20:38.423Z,5.03
2017-12-11T05:21:12.405Z,4.70
2017-12-11T05:21:46.402Z,5.47
2017-12-11T05:22:20.629Z,5.45
2017-12-11T05:22:54.727Z,5.22
2017-12-11T05:23:28.659Z,4.70
2017-12-11T05:24:02.544Z,4.40
2017-12-11T05:24:36.457Z,5.35
2017-12-11T05:25:10.388Z,4.82
2017-12-11T05:25:44.279Z,4.97
2017-12-11T05:26:18.142Z,5.25
2017-12-11T05:26:52.078Z,5.68
2017-12-11T05:27:25.986Z,4.80
2017-12-11T05:27:59.885Z,5.05
2017-12-11T05:28:35.798Z,5.18
2017-12-11T05:29:09.913Z,5.65
2017-12-11T05:29:43.850Z,6.00
2017-12-11T05:30:17.769Z,5.50
2017-12-11T05:30:51.918Z,5.50
2017-12-11T05:31:25.993Z,5.68
2017-12-11T05:32:00.015Z,5.40
2017-12-11T05:32:33.911Z,5.25
2017-12-11T05:33:07.840Z,4.68
2017-12-11T05:33:41.785Z,5.03
2017-12-11T05:34:15.773Z,5.12
2017-12-11T05:34:50.145Z,6.70
2017-12-11T05:35:24.062Z,5.80
2017-12-11T05:35:57.985Z,6.30
2017-12-11T05:36:31.880Z,6.00
2017-12-11T05:37:06.773Z,5.53
2017-12-11T05:37:40.977Z,6.25
2017-12-11T05:38:14.933Z,5.57
2017-12-11T05:38:48.855Z,5.50
2017-12-11T05:39:22.755Z,6.37
2017-12-11T05:39:56.619Z,5.55
2017-12-11T05:40:30.515Z,6.10
2017-12-11T05:41:04.448Z,5.53
2017-12-11T05:41:38.379Z,6.07
2017-12-11T05:42:12.446Z,6.72
2017-12-11T05:42:46.337Z,6.10
2017-12-11T05:43:20.337Z,6.70
2017-12-11T05:43:54.229Z,6.53
2017-12-11T05:44:28.322Z,6.00
2017-12-11T05:45:02.321Z,6.60
2017-12-11T05:45:36.528Z,5.87
2017-12-11T05:46:10.441Z,6.15
2017-12-11T05:46:44.458Z,5.87
2017-12-11T05:47:18.340Z,7.25
2017-12-11T05:47:52.201Z,7.07
2017-12-11T05:48:26.200Z,7.50
2017-12-11T05:49:00.170Z,7.50
2017-12-11T05:49:34.099Z,6.60
2017-12-11T05:50:07.987Z,7.60
2017-12-11T05:50:41.861Z,7.75
2017-12-11T05:51:16.292Z,7.05
2017-12-11T05:51:50.203Z,7.40
2017-12-11T05:52:24.063Z,7.80
2017-12-11T05:52:58.097Z,7.37
2017-12-11T05:53:32.090Z,7.80
2017-12-11T05:54:06.070Z,7.68
2017-12-11T05:54:40.070Z,7.95
2017-12-11T05:55:13.969Z,7.60
2017-12-11T05:55:47.856Z,7.65
2017-12-11T05:56:21.872Z,6.62
2017-12-11T05:56:55.857Z,7.18
2017-12-11T05:57:29.772Z,7.60
2017-12-11T05:58:03.651Z,8.55
2017-12-11T05:58:37.573Z,7.95
2017-12-11T05:59:11.635Z,8.10
2017-12-11T05:59:45.726Z,7.60
2017-12-11T06:00:19.625Z,8.98
2017-12-11T06:00:53.606Z,9.15
2017-12-11T06:01:28.423Z,9.00
2017-12-11T06:02:02.346Z,10.27
2017-12-11T06:02:37.226Z,9.93
2017-12-11T06:03:11.194Z,8.30
2017-12-11T06:03:45.231Z,7.95
2017-12-11T06:04:19.379Z,8.02
2017-12-11T06:04:53.372Z,8.63
2017-12-11T06:05:28.428Z,8.80
2017-12-11T06:06:02.393Z,7.70
2017-12-11T06:06:36.288Z,9.07
2017-12-11T06:07:10.229Z,9.35
2017-12-11T06:07:44.161Z,8.85
2017-12-11T06:08:18.179Z,8.68
2017-12-11T06:08:52.060Z,9.40
2017-12-11T06:09:25.969Z,8.70
2017-12-11T06:09:59.828Z,8.35
2017-12-11T06:10:33.835Z,8.88
2017-12-11T06:11:07.962Z,9.02
2017-12-11T06:11:41.937Z,9.02
2017-12-11T06:12:16.011Z,9.18
2017-12-11T06:12:50.297Z,8.85
2017-12-11T06:13:24.206Z,9.20
2017-12-11T06:13:58.361Z,8.65
2017-12-11T06:14:32.425Z,9.45
2017-12-11T06:15:06.425Z,8.70
2017-12-11T06:15:40.484Z,9.13
2017-12-11T06:16:14.431Z,8.98
2017-12-11T06:16:48.388Z,8.65
2017-12-11T06:17:22.611Z,8.45
2017-12-11T06:17:57.538Z,9.52
2017-12-11T06:18:32.553Z,8.48
2017-12-11T06:19:06.452Z,8.77
2017-12-11T06:19:40.367Z,8.65
2017-12-11T06:20:14.382Z,8.57
2017-12-11T06:20:48.337Z,8.48
2017-12-11T06:21:22.256Z,9.27
2017-12-11T06:21:56.622Z,9.30
2017-12-11T06:22:30.653Z,9.48
2017-12-11T06:23:04.546Z,8.88
2017-12-11T06:23:38.656Z,8.00
2017-12-11T06:24:12.945Z,9.43
2017-12-11T06:24:46.883Z,8.57
2017-12-11T06:25:21.662Z,8.48
2017-12-11T06:25:55.514Z,8.32
2017-12-11T06:26:29.412Z,7.43
2017-12-11T06:27:03.290Z,8.82
2017-12-11T06:27:37.245Z,8.70
2017-12-11T06:28:11.136Z,9.18
2017-12-11T06:28:45.011Z,9.13
2017-12-11T06:29:18.923Z,9.00
2017-12-11T06:29:55.165Z,9.20
2017-12-11T06:30:29.066Z,9.13
2017-12-11T06:31:03.865Z,8.88
2017-12-11T06:31:37.874Z,9.20
2017-12-11T06:32:11.813Z,7.93
2017-12-11T06:32:45.694Z,8.45
2017-12-11T06:33:19.687Z,9.10
2017-12-11T06:33:53.830Z,8.70
2017-12-11T06:34:27.811Z,8.80
2017-12-11T06:35:01.773Z,9.43
2017-12-11T06:35:35.761Z,9.82
2017-12-11T06:36:09.636Z,9.65
2017-12-11T06:36:43.691Z,9.88
2017-12-11T06:37:17.638Z,9.88
2017-12-11T06:37:51.809Z,10.25
2017-12-11T06:38:25.902Z,9.55
2017-12-11T06:38:59.787Z,10.13
2017-12-11T06:39:33.840Z,9.88
2017-12-11T06:40:07.882Z,10.23
2017-12-11T06:40:41.850Z,10.07
2017-12-11T06:41:16.151Z,10.13
2017-12-11T06:41:50.030Z,8.95
2017-12-11T06:42:23.989Z,9.38
2017-12-11T06:42:58.044Z,10.50
2017-12-11T06:43:31.963Z,9.90
2017-12-11T06:44:06.037Z,10.20
2017-12-11T06:44:39.927Z,9.30
2017-12-11T06:45:14.170Z,10.75
2017-12-11T06:45:48.087Z,10.00
2017-12-11T06:46:21.957Z,9.50
2017-12-11T06:46:55.979Z,10.40
2017-12-11T06:47:29.897Z,10.20
2017-12-11T06:48:03.843Z,10.45
2017-12-11T06:48:37.779Z,9.88
2017-12-11T06:49:11.650Z,10.55
2017-12-11T06:49:45.569Z,10.65
2017-12-11T06:50:19.438Z,10.43
2017-12-11T06:50:53.418Z,10.18
2017-12-11T06:51:27.311Z,10.38
2017-12-11T06:52:01.339Z,10.07
2017-12-11T06:52:35.246Z,9.70
2017-12-11T06:53:09.354Z,10.00
2017-12-11T06:53:43.409Z,9.25
2017-12-11T06:54:18.263Z,10.50
2017-12-11T06:54:52.316Z,9.88
2017-12-11T06:55:26.272Z,9.63
2017-12-11T06:56:00.162Z,9.40
2017-12-11T06:56:34.072Z,10.43
2017-12-11T06:57:07.993Z,9.95
2017-12-11T06:57:41.953Z,10.07
2017-12-11T06:58:15.842Z,9.60
2017-12-11T06:58:49.781Z,9.60
2017-12-11T06:59:23.788Z,8.90
2017-12-11T06:59:57.707Z,9.95
2017-12-11T07:00:31.602Z,9.30
2017-12-11T07:01:05.561Z,10.32
2017-12-11T07:01:39.468Z,9.02
2017-12-11T07:02:13.380Z,11.40
2017-12-11T07:02:47.296Z,10.00
2017-12-11T07:03:21.247Z,9.75
2017-12-11T07:03:55.254Z,9.60
2017-12-11T07:04:29.565Z,10.63
2017-12-11T07:05:03.584Z,10.73
2017-12-11T07:05:37.502Z,9.85
2017-12-11T07:06:11.538Z,10.88
2017-12-11T07:06:45.485Z,11.12
2017-12-11T07:07:19.618Z,10.65
2017-12-11T07:07:53.523Z,11.63
2017-12-11T07:08:27.620Z,11.02
2017-12-11T07:09:01.606Z,12.07
2017-12-11T07:09:35.556Z,11.27
2017-12-11T07:10:09.478Z,10.30
2017-12-11T07:10:43.440Z,10.75
2017-12-11T07:11:17.545Z,10.45
2017-12-11T07:11:51.540Z,10.23
2017-12-11T07:12:25.430Z,10.65
2017-12-11T07:12:59.913Z,11.30
2017-12-11T07:13:33.925Z,10.18
2017-12-11T07:14:07.821Z,11.10
2017-12-11T07:14:44.619Z,11.77
2017-12-11T07:15:18.582Z,11.70
2017-12-11T07:15:52.570Z,13.02
2017-12-11T07:16:26.716Z,12.45
2017-12-11T07:17:00.649Z,11.30
2017-12-11T07:17:34.611Z,14.13
2017-12-11T07:18:08.700Z,12.48
2017-12-11T07:18:42.700Z,12.25
2017-12-11T07:19:16.919Z,11.15
2017-12-11T07:19:50.881Z,10.93
2017-12-11T07:20:24.853Z,11.57
2017-12-11T07:20:59.061Z,11.15
2017-12-11T07:21:33.001Z,12.10
2017-12-11T07:22:06.929Z,10.07
2017-12-11T07:22:41.067Z,10.23
2017-12-11T07:23:15.042Z,11.43
2017-12-11T07:23:49.107Z,10.48
2017-12-11T07:24:23.018Z,10.43
2017-12-11T07:24:56.967Z,11.57
2017-12-11T07:25:30.833Z,11.10
2017-12-11T07:26:04.731Z,11.05
2017-12-11T07:26:38.638Z,10.30
2017-12-11T07:27:12.566Z,12.48
2017-12-11T07:27:46.838Z,11.10
2017-12-11T07:28:20.766Z,10.98
2017-12-11T07:28:54.725Z,11.82
2017-12-11T07:29:28.668Z,11.85
2017-12-11T07:30:02.932Z,11.18
2017-12-11T07:30:37.089Z,12.07
2017-12-11T07:31:11.137Z,12.70